Time;durP1;ratioP1;P1;durP2;ratioP2;P2;SDS_P1;SDS_P2;PMS_P1;PMS_P2;Temp;Humidity;BMP_temperature;BMP_pressure;BME280_temperature;BME280_humidity;BME280_pressure;Samples;Min_cycle;Max_cycle;Signal;HPM_P1;HPM_P2
2023/07/12 00:00:43;;;;;;;11.57;8.48;;;;;;;-145.68;43.49;71823.16;10408826;28;20208;-68
2023/07/12 00:05:44;;;;;;;12.40;9.27;;;;;;;-145.68;43.82;71817.16;10410215;28;20209;-68
2023/07/12 00:10:45;;;;;;;11.70;8.32;;;;;;;-145.68;43.65;71805.19;10409837;28;20244;-67
2023/07/12 00:15:47;;;;;;;10.55;8.57;;;;;;;-145.68;44.03;71797.19;10416433;28;20188;-67
2023/07/12 00:20:49;;;;;;;14.18;8.55;;;;;;;-145.68;44.08;71785.19;10417089;28;20217;-68
2023/07/12 00:25:50;;;;;;;11.02;8.85;;;;;;;-145.68;44.37;71789.19;10417006;28;20259;-67
2023/07/12 00:30:52;;;;;;;13.00;9.30;;;;;;;-145.68;44.45;71775.22;10416824;28;20216;-67
2023/07/12 00:35:52;;;;;;;11.90;8.02;;;;;;;-145.68;44.47;71767.22;10416515;28;20558;-68
2023/07/12 00:40:56;;;;;;;14.98;9.90;;;;;;;-145.68;44.76;71765.22;10415180;28;20240;-68
2023/07/12 00:45:58;;;;;;;12.07;8.80;;;;;;;-145.68;44.89;71773.22;10416082;28;20691;-68
2023/07/12 00:51:17;;;;;;;12.02;8.52;;;;;;;-145.68;44.89;71767.22;10431442;28;20206;-68
2023/07/12 00:56:17;;;;;;;13.07;9.52;;;;;;;-145.68;45.17;71761.22;10414567;28;20284;-68
2023/07/12 01:01:18;;;;;;;12.55;9.00;;;;;;;-145.68;45.13;71759.22;10415607;28;20655;-68
2023/07/12 01:06:20;;;;;;;15.68;8.70;;;;;;;-145.68;45.35;71763.22;10415399;28;20580;-67
2023/07/12 01:11:21;;;;;;;12.63;9.73;;;;;;;-145.68;45.54;71761.22;10415360;28;20218;-67
2023/07/12 01:16:23;;;;;;;13.25;9.05;;;;;;;-145.68;45.69;71769.22;10430480;28;20181;-67
2023/07/12 01:21:24;;;;;;;12.85;9.50;;;;;;;-145.68;45.08;71783.19;10413731;28;20266;-67
2023/07/12 01:26:29;;;;;;;15.57;8.80;;;;;;;-145.68;44.79;71777.22;10414875;28;20966;-68
2023/07/12 01:31:30;;;;;;;13.50;9.23;;;;;;;-145.68;44.92;71785.19;10414329;28;20207;-68
2023/07/12 01:36:31;;;;;;;12.65;8.73;;;;;;;-145.68;45.02;71769.22;10414392;28;20674;-67
2023/07/12 01:41:32;;;;;;;15.73;9.73;;;;;;;-145.68;44.67;71757.22;10413860;28;20239;-67
2023/07/12 01:46:33;;;;;;;15.38;9.10;;;;;;;-145.68;44.94;71757.22;10413778;28;20224;-67
2023/07/12 01:51:33;;;;;;;14.48;9.02;;;;;;;-145.68;45.15;71759.22;10412708;28;20571;-67
2023/07/12 01:56:34;;;;;;;13.98;8.15;;;;;;;-145.68;45.61;71793.19;10413368;28;20200;-67
2023/07/12 02:01:34;;;;;;;10.90;8.13;;;;;;;-145.68;45.98;71821.16;10412260;28;20196;-67
2023/07/12 02:06:36;;;;;;;10.48;8.68;;;;;;;-145.68;46.04;71833.16;10413004;28;20216;-67
2023/07/12 02:11:37;;;;;;;11.75;7.82;;;;;;;-145.68;45.93;71851.13;10411702;28;20188;-67
2023/07/12 02:16:37;;;;;;;11.43;7.10;;;;;;;-145.68;45.86;71867.13;10411613;28;20188;-68
2023/07/12 02:21:37;;;;;;;11.52;5.85;;;;;;;-145.68;46.02;71855.13;10412486;28;20192;-67
2023/07/12 02:26:39;;;;;;;9.35;5.85;;;;;;;-145.68;46.42;71885.09;10411148;28;20220;-67
2023/07/12 02:31:40;;;;;;;8.32;5.65;;;;;;;-145.68;46.39;71873.09;10410988;28;20219;-68
2023/07/12 02:36:40;;;;;;;7.00;5.50;;;;;;;-145.68;46.80;71887.09;10411606;28;20263;-67
2023/07/12 02:41:40;;;;;;;9.80;5.22;;;;;;;-145.68;47.29;71901.09;10411973;28;20199;-67
2023/07/12 02:46:41;;;;;;;13.35;5.95;;;;;;;-145.68;47.63;71923.06;10411660;28;20220;-68
2023/07/12 02:51:41;;;;;;;8.35;5.55;;;;;;;-145.68;48.01;71939.03;10411824;28;20196;-68
2023/07/12 02:56:41;;;;;;;9.50;5.70;;;;;;;-145.68;48.84;71963.03;10411518;28;20187;-67
2023/07/12 03:01:42;;;;;;;7.18;4.72;;;;;;;-145.68;50.00;71975.00;10411337;28;20193;-68
2023/07/12 03:06:42;;;;;;;7.97;4.60;;;;;;;-145.68;51.06;71996.97;10411659;28;20265;-68
2023/07/12 03:11:47;;;;;;;6.53;4.40;;;;;;;-145.68;51.33;71996.97;10411328;28;20192;-67
2023/07/12 03:16:47;;;;;;;4.78;2.75;;;;;;;-145.68;50.57;71981.00;10410947;28;20203;-67
2023/07/12 03:21:48;;;;;;;3.33;2.97;;;;;;;-145.68;50.04;71991.00;10411072;28;20196;-67
2023/07/12 03:26:48;;;;;;;7.60;2.47;;;;;;;-145.68;49.16;71971.00;10410731;28;20216;-67
2023/07/12 03:31:48;;;;;;;4.95;3.08;;;;;;;-145.68;48.95;71971.00;10410277;28;20192;-67
2023/07/12 03:36:49;;;;;;;2.72;2.20;;;;;;;-145.68;49.01;71973.00;10410114;28;20280;-67
2023/07/12 03:41:49;;;;;;;3.15;2.33;;;;;;;-145.68;48.93;71971.00;10410196;28;20196;-67
2023/07/12 03:46:49;;;;;;;3.35;2.65;;;;;;;-145.68;48.71;71973.00;10410834;28;20228;-67
2023/07/12 03:51:50;;;;;;;4.70;2.35;;;;;;;-145.68;48.55;71989.00;10418251;28;20630;-67
2023/07/12 03:56:50;;;;;;;2.97;1.95;;;;;;;-145.68;49.48;72004.97;10418414;28;20542;-67
2023/07/12 04:01:50;;;;;;;3.08;2.42;;;;;;;-145.68;49.85;72014.97;10417815;28;20620;-67
2023/07/12 04:06:51;;;;;;;4.15;2.58;;;;;;;-145.68;50.91;72040.94;10418079;28;20225;-67
2023/07/12 04:11:51;;;;;;;6.05;2.25;;;;;;;-145.68;50.83;72024.97;10417998;28;20207;-68
2023/07/12 04:16:51;;;;;;;2.97;2.40;;;;;;;-145.68;51.06;72062.91;10417271;28;20184;-68
2023/07/12 04:21:52;;;;;;;2.65;2.10;;;;;;;-145.68;51.09;72070.91;10417606;28;20270;-68
2023/07/12 04:26:52;;;;;;;3.03;2.10;;;;;;;-145.68;50.81;72056.94;10416999;28;20220;-68
2023/07/12 04:31:53;;;;;;;2.88;2.00;;;;;;;-145.68;50.43;72046.94;10417091;28;20197;-68
2023/07/12 04:36:56;;;;;;;2.05;1.70;;;;;;;-145.68;50.47;72046.94;10416422;28;20188;-69
2023/07/12 04:41:57;;;;;;;2.60;1.80;;;;;;;-145.68;48.90;72020.97;10435460;23;20240;-61
2023/07/12 04:46:57;;;;;;;2.88;1.58;;;;;;;-145.68;48.45;71987.00;10416326;28;20333;-61
2023/07/12 04:51:57;;;;;;;3.20;1.38;;;;;;;-145.68;46.76;71949.03;10375033;28;20197;-62
2023/07/12 04:56:58;;;;;;;2.25;1.60;;;;;;;-145.68;45.57;71893.09;10375218;28;20190;-62
2023/07/12 05:01:58;;;;;;;1.77;1.10;;;;;;;-145.68;45.02;71875.09;10374198;28;20239;-61
2023/07/12 05:06:58;;;;;;;2.97;1.23;;;;;;;-145.68;43.97;71845.13;10374629;28;20213;-62
2023/07/12 05:11:59;;;;;;;1.40;1.10;;;;;;;-145.68;44.13;71849.13;10374613;28;20684;-62
2023/07/12 05:16:59;;;;;;;1.00;0.73;;;;;;;-145.68;43.96;71855.13;10362245;28;20190;-62
2023/07/12 05:21:59;;;;;;;1.13;0.90;;;;;;;-145.68;44.29;71863.13;10352441;28;20189;-64
2023/07/12 05:27:00;;;;;;;0.90;0.82;;;;;;;-145.68;44.22;71871.09;10352736;28;20233;-64
2023/07/12 05:32:00;;;;;;;0.98;0.90;;;;;;;-145.68;43.99;71857.13;10351699;28;20681;-64
2023/07/12 05:37:01;;;;;;;4.35;1.17;;;;;;;-145.68;44.25;71849.13;10348388;28;20567;-62
2023/07/12 05:42:01;;;;;;;2.05;0.98;;;;;;;-145.68;44.43;71877.09;10348707;28;20230;-63
2023/07/12 05:47:02;;;;;;;1.45;1.10;;;;;;;-145.68;44.95;71875.09;10345580;28;20226;-63
2023/07/12 05:52:02;;;;;;;2.13;1.02;;;;;;;-145.68;44.36;71857.13;10387884;28;20612;-62
2023/07/12 05:57:04;;;;;;;0.85;0.85;;;;;;;-145.68;45.16;71841.13;10413699;28;20184;-63
2023/07/12 06:02:06;;;;;;;0.80;0.80;;;;;;;-145.68;44.25;71833.16;10413287;28;20198;-63
2023/07/12 06:07:06;;;;;;;1.00;0.95;;;;;;;-145.68;44.76;71813.16;10413185;28;20862;-63
2023/07/12 06:12:08;;;;;;;1.05;0.95;;;;;;;-145.68;44.30;71821.16;10377676;28;20269;-64
2023/07/12 06:17:08;;;;;;;3.13;1.00;;;;;;;-145.68;44.12;71779.19;10341377;28;20193;-64
2023/07/12 06:22:10;;;;;;;3.08;1.10;;;;;;;-145.68;43.55;71781.19;10331235;28;20216;-64
2023/07/12 06:27:10;;;;;;;1.15;0.95;;;;;;;-145.68;43.57;71715.28;10334779;28;20520;-64
2023/07/12 06:32:11;;;;;;;3.15;1.20;;;;;;;-145.68;43.50;71737.25;10358147;28;20200;-63
2023/07/12 06:37:11;;;;;;;2.25;1.40;;;;;;;-145.68;43.26;71699.28;10371204;28;20619;-64
2023/07/12 06:42:12;;;;;;;1.05;1.00;;;;;;;-145.68;40.68;71569.44;10362112;28;20189;-64
2023/07/12 06:47:13;;;;;;;2.28;1.35;;;;;;;-145.68;40.17;71561.44;10348472;28;20711;-63
2023/07/12 06:52:13;;;;;;;1.17;1.07;;;;;;;-145.68;40.71;71585.41;10350730;28;20193;-63
2023/07/12 06:57:14;;;;;;;2.25;1.30;;;;;;;-145.68;41.29;71753.22;10344432;28;20452;-64
2023/07/12 07:02:14;;;;;;;1.40;1.30;;;;;;;-145.68;41.99;71713.28;10343666;28;20194;-64
2023/07/12 07:07:15;;;;;;;1.90;1.10;;;;;;;-145.68;40.89;71619.38;10349280;28;20220;-64
2023/07/12 07:12:15;;;;;;;1.17;0.80;;;;;;;-145.68;41.33;71691.28;10349953;28;20667;-63
2023/07/12 07:17:15;;;;;;;0.98;0.98;;;;;;;-145.68;40.98;71629.38;10348231;28;20997;-63
2023/07/12 07:22:16;;;;;;;1.52;0.90;;;;;;;-145.68;41.83;71747.25;10350878;28;20233;-64
2023/07/12 07:27:17;;;;;;;1.35;0.93;;;;;;;-145.68;41.77;71709.28;10354216;28;20240;-64
2023/07/12 07:32:18;;;;;;;1.55;0.85;;;;;;;-145.68;42.25;71737.25;10358498;28;20225;-64
2023/07/12 07:37:18;;;;;;;1.00;1.00;;;;;;;-145.68;42.63;71749.22;10363944;28;20208;-64
2023/07/12 07:42:18;;;;;;;1.33;1.23;;;;;;;-145.68;42.30;71699.28;10376308;28;20278;-64
2023/07/12 07:47:19;;;;;;;1.67;0.95;;;;;;;-145.68;43.76;71765.22;10374740;28;20241;-65
2023/07/12 07:52:20;;;;;;;2.33;1.20;;;;;;;-145.68;43.93;71799.19;10371121;28;20204;-63
2023/07/12 07:57:22;;;;;;;1.45;1.08;;;;;;;-145.68;45.13;71807.19;10374400;28;20212;-65
2023/07/12 08:02:22;;;;;;;1.50;1.17;;;;;;;-145.68;44.57;71763.22;10375111;28;20193;-62
2023/07/12 08:07:23;;;;;;;2.72;1.40;;;;;;;-145.68;43.59;71701.28;10375411;28;20731;-64
2023/07/12 08:12:23;;;;;;;2.80;1.40;;;;;;;-145.68;43.08;71601.41;10375253;28;20596;-64
2023/07/12 08:17:23;;;;;;;1.95;1.40;;;;;;;-145.68;44.34;71705.28;10375431;28;20217;-65
2023/07/12 08:22:25;;;;;;;2.60;1.58;;;;;;;-145.68;43.79;71655.34;10374599;28;20284;-63
2023/07/12 08:27:25;;;;;;;3.15;2.03;;;;;;;-145.68;43.71;71651.34;10374110;28;20232;-65
2023/07/12 08:32:30;;;;;;;3.08;1.52;;;;;;;-145.68;43.49;71649.34;10373982;28;20200;-64
2023/07/12 08:37:30;;;;;;;3.20;1.90;;;;;;;-145.68;42.89;71557.44;10373915;28;20229;-64
2023/07/12 08:42:35;;;;;;;5.47;1.98;;;;;;;-145.68;42.65;71483.53;10374330;28;20196;-66
2023/07/12 08:47:38;;;;;;;3.60;1.95;;;;;;;-145.68;41.38;71465.53;10356002;28;20307;-64
2023/07/12 08:52:40;;;;;;;3.50;1.67;;;;;;;-145.68;41.10;71483.53;10373717;28;20263;-63
2023/07/12 08:57:41;;;;;;;6.57;2.08;;;;;;;-145.68;43.97;71693.28;10355196;28;20229;-62
2023/07/12 09:02:41;;;;;;;3.80;2.13;;;;;;;-145.68;44.98;71713.28;10373343;28;20193;-61
2023/07/12 09:07:52;;;;;;;5.32;1.65;;;;;;;-145.68;46.50;71749.22;10373445;28;20598;-63
2023/07/12 09:12:52;;;;;;;3.63;2.38;;;;;;;-145.68;47.87;71889.09;10338524;28;20197;-65
2023/07/12 09:17:53;;;;;;;6.22;2.20;;;;;;;-145.68;46.69;71761.22;10332193;28;20563;-65
2023/07/12 09:22:54;;;;;;;6.38;2.05;;;;;;;-145.68;47.82;71809.16;10332072;28;20194;-65
2023/07/12 09:27:54;;;;;;;2.92;2.17;;;;;;;-145.68;47.33;71775.22;10331871;28;20214;-65
2023/07/12 09:32:54;;;;;;;7.47;2.67;;;;;;;-145.68;46.16;71693.28;10359824;28;20215;-64
2023/07/12 09:38:00;;;;;;;4.10;2.35;;;;;;;-145.68;46.81;71729.25;10371586;28;20237;-64
2023/07/12 09:43:03;;;;;;;4.95;2.33;;;;;;;-145.68;45.47;71601.41;10371411;28;20354;-64
2023/07/12 09:48:26;;;;;;;3.88;3.10;;;;;;;-145.68;45.50;71633.34;10367487;28;20225;-62
2023/07/12 09:53:40;;;;;;;5.15;3.03;;;;;;;-145.68;48.17;71781.19;10352359;28;20287;-65
2023/07/12 09:59:22;;;;;;;10.73;3.03;;;;;;;-145.68;48.50;71817.16;10370678;28;20213;-64
2023/07/12 10:04:32;;;;;;;4.53;3.08;;;;;;;-145.68;47.11;71771.22;10366926;28;20190;-64
2023/07/12 10:09:34;;;;;;;10.68;4.05;;;;;;;-145.68;46.18;71645.34;10330107;28;20227;-63
2023/07/12 10:14:38;;;;;;;6.40;3.72;;;;;;;-145.68;43.60;71549.44;10349294;28;20194;-64
2023/07/12 10:19:40;;;;;;;5.82;3.47;;;;;;;-145.68;43.06;71429.59;10347535;28;20248;-63
2023/07/12 10:24:43;;;;;;;8.27;3.75;;;;;;;-145.68;43.10;71541.47;10349321;28;20217;-62
2023/07/12 10:29:48;;;;;;;8.23;3.92;;;;;;;-145.68;45.14;71661.31;10347231;28;20268;-64
2023/07/12 10:35:01;;;;;;;4.78;3.75;;;;;;;-145.68;46.18;71667.31;10392327;28;20193;-64
2023/07/12 10:40:02;;;;;;;6.70;3.15;;;;;;;-145.68;43.37;71425.59;10447229;22;20360;-67
2023/07/12 10:45:04;;;;;;;6.50;3.78;;;;;;;-145.68;44.88;71663.31;10428107;28;20226;-68
2023/07/12 10:50:17;;;;;;;4.95;3.88;;;;;;;-145.68;42.58;71457.56;10425643;28;20246;-68
2023/07/12 10:55:21;;;;;;;4.28;3.40;;;;;;;-145.68;40.52;71291.75;10427945;28;20207;-69
2023/07/12 11:00:26;;;;;;;6.05;3.58;;;;;;;-145.68;41.49;71421.59;10437543;28;20219;-69
2023/07/12 11:05:54;;;;;;;5.22;3.17;;;;;;;-145.68;41.21;71367.66;10441084;28;20210;-67
2023/07/12 11:10:55;;;;;;;5.97;3.40;;;;;;;-145.68;41.24;71379.63;10441859;28;20274;-67
2023/07/12 11:16:06;;;;;;;9.13;3.92;;;;;;;-145.68;40.86;71509.50;10465857;28;20249;-67
2023/07/12 11:21:25;;;;;;;7.45;2.25;;;;;;;-145.68;40.06;71381.63;10465800;28;20574;-68
2023/07/12 11:26:31;;;;;;;3.72;1.90;;;;;;;-145.68;39.64;71421.59;10450504;28;20211;-67
2023/07/12 11:31:32;;;;;;;7.95;1.70;;;;;;;-145.68;38.90;71369.66;10450410;28;20216;-68
2023/07/12 11:36:34;;;;;;;7.82;1.50;;;;;;;-145.68;40.37;71485.53;10450096;28;20184;-68
2023/07/12 11:41:35;;;;;;;2.95;1.83;;;;;;;-145.68;41.10;71579.41;10444347;28;20657;-68
2023/07/12 11:46:37;;;;;;;3.30;1.87;;;;;;;-145.68;42.06;71517.47;10449281;28;20227;-68
2023/07/12 11:51:39;;;;;;;3.42;2.40;;;;;;;-145.68;40.66;71337.69;10449502;28;20462;-67
2023/07/12 11:56:40;;;;;;;4.68;2.50;;;;;;;-145.68;39.95;71247.78;10434285;28;20184;-69
2023/07/12 12:01:43;;;;;;;3.88;3.42;;;;;;;-145.68;40.08;71287.75;10435708;28;20585;-68
2023/07/12 12:06:43;;;;;;;6.07;3.50;;;;;;;-145.68;39.49;71167.88;10449630;28;20212;-68
2023/07/12 12:11:44;;;;;;;5.28;3.60;;;;;;;-145.68;38.12;71004.09;10450981;28;20307;-68
2023/07/12 12:16:51;;;;;;;6.32;3.55;;;;;;;-145.68;37.24;70938.16;10454217;28;20185;-68
2023/07/12 12:21:59;;;;;;;3.90;3.45;;;;;;;-145.68;37.71;71042.03;10448026;28;20216;-67
2023/07/12 12:27:00;;;;;;;6.57;4.03;;;;;;;-145.68;39.27;71157.91;10456448;28;20274;-69
2023/07/12 12:32:03;;;;;;;6.80;3.90;;;;;;;-145.68;41.22;71389.63;10454077;28;20226;-68
2023/07/12 12:37:06;;;;;;;5.68;4.38;;;;;;;-145.68;44.43;71587.41;10447774;28;20192;-68
2023/07/12 12:42:21;;;;;;;12.90;4.80;;;;;;;-145.68;53.90;71679.31;10433894;28;20236;-69
2023/07/12 12:47:28;;;;;;;6.47;4.65;;;;;;;-145.68;56.55;71787.19;10436118;28;20220;-69
2023/07/12 12:52:32;;;;;;;5.00;4.10;;;;;;;-145.68;55.54;71725.25;10435374;28;20736;-68
2023/07/12 12:57:36;;;;;;;8.35;3.88;;;;;;;-145.68;48.17;71495.50;10440819;28;20188;-67
2023/07/12 13:02:36;;;;;;;11.88;3.78;;;;;;;-145.68;43.12;71257.78;10452250;28;20203;-66
2023/07/12 13:07:38;;;;;;;6.57;3.90;;;;;;;-145.68;44.08;71639.34;10453065;28;21078;-67
2023/07/12 13:12:40;;;;;;;5.00;3.70;;;;;;;-145.68;45.89;71651.34;10442900;28;20493;-67
2023/07/12 13:17:41;;;;;;;6.60;3.97;;;;;;;-145.68;43.82;71433.56;10411332;28;20283;-67
2023/07/12 13:22:43;;;;;;;10.85;3.38;;;;;;;-145.68;43.92;71533.47;10411335;28;20193;-67
2023/07/12 13:27:49;;;;;;;8.82;3.42;;;;;;;-145.68;44.90;71571.44;10411133;28;20226;-67
2023/07/12 13:32:50;;;;;;;5.55;3.15;;;;;;;-145.68;44.22;71553.44;10409456;28;20211;-67
2023/07/12 13:37:50;;;;;;;6.83;3.33;;;;;;;-145.68;43.13;71499.50;10410701;28;20284;-66
2023/07/12 13:42:50;;;;;;;5.68;2.92;;;;;;;-145.68;39.26;71229.81;10424090;28;20442;-66
2023/07/12 13:47:52;;;;;;;10.03;3.10;;;;;;;-145.68;38.46;71195.84;10451377;28;20710;-67
2023/07/12 13:52:53;;;;;;;3.88;2.42;;;;;;;-145.68;35.47;70954.16;10451636;28;20433;-67
2023/07/12 13:57:53;;;;;;;5.25;2.88;;;;;;;-145.68;34.36;70838.28;10433602;28;20195;-67
2023/07/12 14:02:55;;;;;;;5.97;2.70;;;;;;;-145.68;34.30;70864.25;10441899;28;20199;-67
2023/07/12 14:07:55;;;;;;;4.85;2.47;;;;;;;-145.68;32.95;70840.28;10450868;28;20553;-68
2023/07/12 14:12:56;;;;;;;2.80;2.47;;;;;;;-145.68;34.55;71076.00;10452294;28;20188;-68
2023/07/12 14:17:56;;;;;;;5.88;2.17;;;;;;;-145.68;35.70;71187.84;10441723;28;20984;-67
2023/07/12 14:22:56;;;;;;;4.90;2.47;;;;;;;-145.68;36.17;71303.72;10443881;28;20200;-67
2023/07/12 14:28:00;;;;;;;3.80;2.40;;;;;;;-145.68;36.72;71389.63;10428366;28;20475;-68
2023/07/12 14:33:01;;;;;;;5.72;2.42;;;;;;;-145.68;38.09;71569.44;10410058;28;20469;-68
2023/07/12 14:38:01;;;;;;;3.75;2.30;;;;;;;-145.68;37.31;71485.53;10410810;28;20299;-68
2023/07/12 14:43:03;;;;;;;6.65;2.40;;;;;;;-145.68;36.93;71419.59;10445701;28;20242;-67
2023/07/12 14:48:05;;;;;;;3.28;1.85;;;;;;;-145.68;33.41;71058.00;10447676;28;20226;-67
2023/07/12 14:53:10;;;;;;;3.25;1.90;;;;;;;-145.68;31.03;70820.31;10451465;28;20190;-68
2023/07/12 14:58:13;;;;;;;5.88;1.48;;;;;;;-145.68;32.14;70894.22;10450959;28;20204;-68
2023/07/12 15:03:19;;;;;;;2.17;1.85;;;;;;;-145.68;32.35;71020.06;10451209;28;20270;-68
2023/07/12 15:08:30;;;;;;;3.65;1.70;;;;;;;-145.68;33.26;71137.91;10450710;28;20258;-68
2023/07/12 15:13:30;;;;;;;7.20;2.10;;;;;;;-145.68;34.70;71247.78;10450710;28;20607;-67
2023/07/12 15:18:30;;;;;;;4.50;1.80;;;;;;;-145.68;35.37;71349.66;10449678;28;20212;-67
2023/07/12 15:23:34;;;;;;;4.10;1.70;;;;;;;-145.68;36.62;71401.63;10450437;28;20635;-67
2023/07/12 15:28:38;;;;;;;4.85;1.85;;;;;;;-145.68;36.70;71433.56;10450422;28;20534;-67
2023/07/12 15:33:38;;;;;;;6.35;2.10;;;;;;;-145.68;36.21;71417.59;10450518;28;20200;-67
2023/07/12 15:38:44;;;;;;;6.73;1.70;;;;;;;-145.68;34.32;71187.84;10450163;28;20994;-67
2023/07/12 15:43:47;;;;;;;3.42;1.70;;;;;;;-145.68;32.29;70994.09;10453616;28;20442;-67
2023/07/12 15:48:48;;;;;;;5.30;1.60;;;;;;;-145.68;31.07;70904.19;10458418;28;20235;-67
2023/07/12 15:53:52;;;;;;;3.13;1.67;;;;;;;-145.68;31.34;70898.22;10457101;28;20195;-67
2023/07/12 15:58:52;;;;;;;3.65;1.77;;;;;;;-145.68;32.74;71074.00;10458206;28;20446;-67
2023/07/12 16:03:52;;;;;;;3.22;1.65;;;;;;;-145.68;33.51;71217.81;10458353;28;20203;-67
2023/07/12 16:08:53;;;;;;;8.68;1.80;;;;;;;-145.68;35.34;71393.63;10457471;28;20277;-67
2023/07/12 16:13:54;;;;;;;4.75;1.50;;;;;;;-145.68;37.07;71525.47;10457814;28;20187;-68
2023/07/12 16:18:54;;;;;;;4.85;1.88;;;;;;;-145.68;37.18;71561.44;10455377;28;20231;-68
2023/07/12 16:23:55;;;;;;;3.83;1.30;;;;;;;-145.68;37.06;71559.44;10456417;28;20206;-68
2023/07/12 16:28:57;;;;;;;1.73;1.35;;;;;;;-145.68;37.80;71569.44;10459427;28;21002;-67
2023/07/12 16:33:58;;;;;;;2.40;1.60;;;;;;;-145.68;36.96;71505.50;10488916;28;20192;-67
2023/07/12 16:38:59;;;;;;;5.43;1.52;;;;;;;-145.68;37.58;71539.47;10484828;22;20796;-64
2023/07/12 16:44:00;;;;;;;5.03;1.65;;;;;;;-145.68;36.94;71465.53;10371711;28;20213;-64
2023/07/12 16:49:00;;;;;;;6.28;1.98;;;;;;;-145.68;36.85;71495.50;10382068;28;20715;-63
2023/07/12 16:54:01;;;;;;;2.63;1.33;;;;;;;-145.68;37.99;71529.47;10407401;28;20250;-63
2023/07/12 16:59:01;;;;;;;3.78;1.70;;;;;;;-145.68;37.92;71517.47;10415617;28;20462;-63
2023/07/12 17:04:02;;;;;;;4.40;1.50;;;;;;;-145.68;37.96;71573.41;10412321;28;20247;-64
2023/07/12 17:09:13;;;;;;;3.33;1.75;;;;;;;-145.68;38.40;71593.41;10407832;28;20303;-63
2023/07/12 17:14:14;;;;;;;2.60;1.55;;;;;;;-145.68;38.07;71573.41;10374864;28;20181;-63
2023/07/12 17:19:15;;;;;;;4.32;1.77;;;;;;;-145.68;38.73;71645.34;10390662;28;20672;-62
2023/07/12 17:24:17;;;;;;;2.85;1.33;;;;;;;-145.68;38.42;71653.34;10384739;28;20185;-62
2023/07/12 17:29:18;;;;;;;5.00;1.73;;;;;;;-145.68;38.23;71657.34;10386567;28;20217;-63
2023/07/12 17:34:28;;;;;;;3.33;1.60;;;;;;;-145.68;38.52;71691.28;10373081;28;20217;-63
2023/07/12 17:39:29;;;;;;;4.70;1.90;;;;;;;-145.68;38.49;71707.28;10372279;28;20723;-63
2023/07/12 17:44:29;;;;;;;2.42;1.65;;;;;;;-145.68;38.70;71715.28;10372660;28;20243;-64
2023/07/12 17:49:29;;;;;;;2.28;1.40;;;;;;;-145.68;38.81;71693.28;10371862;28;20217;-64
2023/07/12 17:54:30;;;;;;;2.33;1.53;;;;;;;-145.68;39.71;71717.28;10372268;28;20197;-63
2023/07/12 17:59:30;;;;;;;5.80;1.77;;;;;;;-145.68;39.43;71763.22;10371744;28;20471;-64
2023/07/12 18:04:31;;;;;;;2.90;1.60;;;;;;;-145.68;39.85;71797.19;10371633;28;20436;-63
2023/07/12 18:09:32;;;;;;;3.80;1.60;;;;;;;-145.68;40.77;71821.16;10370550;28;20225;-64
2023/07/12 18:14:32;;;;;;;5.93;1.80;;;;;;;-145.68;41.21;71823.16;10371325;28;20949;-64
2023/07/12 18:19:32;;;;;;;2.03;1.70;;;;;;;-145.68;42.68;71901.09;10371288;28;20962;-63
2023/07/12 18:24:33;;;;;;;2.08;1.55;;;;;;;-145.68;43.18;71913.06;10371175;28;20293;-64
2023/07/12 18:29:33;;;;;;;6.53;1.88;;;;;;;-145.68;43.52;71921.06;10370770;28;20292;-63
2023/07/12 18:34:33;;;;;;;3.25;1.92;;;;;;;-145.68;44.65;71947.03;10374948;28;20194;-64
2023/07/12 18:39:34;;;;;;;3.65;1.58;;;;;;;-145.68;45.03;71996.97;10388453;28;20286;-64
2023/07/12 18:44:34;;;;;;;3.22;1.58;;;;;;;-145.68;45.79;71991.00;10374227;28;20205;-63
2023/07/12 18:49:35;;;;;;;9.75;1.80;;;;;;;-145.68;45.94;72008.97;10370026;28;20352;-62
2023/07/12 18:54:35;;;;;;;8.45;1.90;;;;;;;-145.68;48.01;72140.84;10370174;28;20196;-64
2023/07/12 18:59:35;;;;;;;4.15;1.65;;;;;;;-145.68;49.19;72196.78;10369652;28;20583;-64
2023/07/12 19:04:36;;;;;;;4.85;2.00;;;;;;;-145.68;50.70;72246.75;10369975;28;20196;-63
2023/07/12 19:09:36;;;;;;;2.83;2.30;;;;;;;-145.68;51.16;72228.75;10369532;28;20213;-64
2023/07/12 19:14:37;;;;;;;3.70;1.90;;;;;;;-145.68;51.35;72288.72;10369747;28;20207;-63
2023/07/12 19:19:38;;;;;;;3.65;1.85;;;;;;;-145.68;53.02;72342.66;10368800;28;20650;-63
2023/07/12 19:24:38;;;;;;;4.43;2.10;;;;;;;-145.68;53.80;72384.63;10382948;28;20636;-63
2023/07/12 19:29:41;;;;;;;2.78;2.08;;;;;;;-145.68;53.46;72390.63;10389188;28;20357;-63
2023/07/12 19:34:42;;;;;;;9.02;2.22;;;;;;;-145.68;54.43;72442.56;10387762;28;20275;-62
2023/07/12 19:39:43;;;;;;;5.88;2.30;;;;;;;-145.68;54.83;72430.59;10383863;28;20572;-63
2023/07/12 19:44:44;;;;;;;6.05;2.03;;;;;;;-145.68;55.81;72444.56;10369141;28;20193;-63
2023/07/12 19:49:44;;;;;;;6.57;2.80;;;;;;;-145.68;54.83;72416.59;10368664;28;20220;-63
2023/07/12 19:54:44;;;;;;;6.53;2.25;;;;;;;-145.68;54.98;72412.59;10368684;28;20197;-63
2023/07/12 19:59:45;;;;;;;5.15;1.92;;;;;;;-145.68;55.47;72428.59;10368527;28;20989;-62
2023/07/12 20:04:45;;;;;;;4.13;2.67;;;;;;;-145.68;56.51;72460.56;10368643;28;20197;-63
2023/07/12 20:09:46;;;;;;;2.53;1.88;;;;;;;-145.68;56.26;72456.56;10368246;28;20352;-63
2023/07/12 20:14:46;;;;;;;2.63;1.80;;;;;;;-145.68;55.90;72462.56;10350999;28;20202;-63
2023/07/12 20:19:47;;;;;;;2.72;2.35;;;;;;;-145.68;56.76;72488.53;10368064;28;20617;-63
2023/07/12 20:24:47;;;;;;;5.47;2.00;;;;;;;-145.68;57.48;72508.50;10367749;28;20729;-62
2023/07/12 20:29:48;;;;;;;2.78;2.30;;;;;;;-145.68;57.65;72522.50;10369462;28;20232;-62
2023/07/12 20:34:48;;;;;;;4.07;1.95;;;;;;;-145.68;57.98;72548.47;10375207;28;20197;-61
2023/07/12 20:39:49;;;;;;;4.00;2.53;;;;;;;-145.68;59.07;72562.47;10374838;28;20248;-63
2023/07/12 20:44:53;;;;;;;9.52;2.17;;;;;;;-145.68;58.97;72598.44;10375109;28;20189;-62
2023/07/12 20:49:54;;;;;;;2.42;1.88;;;;;;;-145.68;57.58;72590.44;10374415;28;20228;-62
2023/07/12 20:54:55;;;;;;;5.85;2.10;;;;;;;-145.68;59.12;72608.44;10374326;28;20193;-62
2023/07/12 20:59:56;;;;;;;2.95;2.10;;;;;;;-145.68;60.19;72644.41;10373983;28;20699;-62
2023/07/12 21:04:56;;;;;;;3.00;2.00;;;;;;;-145.68;59.84;72648.41;10373690;28;20205;-62
2023/07/12 21:09:57;;;;;;;5.75;2.10;;;;;;;-145.68;60.53;72664.38;10373476;28;20638;-62
2023/07/12 21:14:57;;;;;;;6.45;2.35;;;;;;;-145.68;61.58;72682.38;10373982;28;20688;-62
2023/07/12 21:19:59;;;;;;;4.25;2.28;;;;;;;-145.68;60.95;72696.34;10373294;28;20227;-61
2023/07/12 21:25:00;;;;;;;4.45;2.42;;;;;;;-145.68;61.36;72698.34;10373573;28;20288;-62
2023/07/12 21:30:01;;;;;;;6.35;2.45;;;;;;;-145.68;61.75;72706.34;10373638;28;20229;-62
2023/07/12 21:35:02;;;;;;;3.78;2.40;;;;;;;-145.68;61.91;72722.34;10373328;28;20544;-62
2023/07/12 21:40:04;;;;;;;3.47;2.67;;;;;;;-145.68;61.83;72740.31;10373176;28;20249;-62
2023/07/12 21:45:05;;;;;;;4.88;2.58;;;;;;;-145.68;62.36;72758.31;10374207;28;20201;-62
2023/07/12 21:50:06;;;;;;;3.00;2.47;;;;;;;-145.68;62.81;72768.31;10372870;28;20240;-61
2023/07/12 21:55:07;;;;;;;6.15;2.72;;;;;;;-145.68;63.60;72784.28;10372794;28;20185;-62
2023/07/12 22:00:11;;;;;;;4.57;2.60;;;;;;;-145.68;64.25;72808.28;10372345;28;20201;-62
2023/07/12 22:05:11;;;;;;;4.72;2.50;;;;;;;-145.68;63.32;72804.28;10372568;28;20652;-62
2023/07/12 22:10:13;;;;;;;4.85;2.78;;;;;;;-145.68;64.01;72810.28;10371893;28;20217;-62
2023/07/12 22:15:14;;;;;;;4.97;2.38;;;;;;;-145.68;64.72;72832.25;10372197;28;20188;-62
2023/07/12 22:20:15;;;;;;;4.00;2.38;;;;;;;-145.68;63.82;72836.25;10371843;28;20930;-62
2023/07/12 22:25:17;;;;;;;3.13;2.45;;;;;;;-145.68;64.91;72842.25;10371524;28;20554;-62
2023/07/12 22:30:38;;;;;;;6.93;2.90;;;;;;;-145.68;65.36;72862.22;10372165;28;20205;-63
2023/07/12 22:35:38;;;;;;;3.83;2.45;;;;;;;-145.68;65.07;72882.22;10371192;28;20197;-63
2023/07/12 22:40:38;;;;;;;3.08;2.30;;;;;;;-145.68;65.82;72884.22;10414399;23;20297;-68
2023/07/12 22:45:39;;;;;;;5.10;2.60;;;;;;;-145.68;66.66;72882.22;10450930;28;20298;-68
2023/07/12 22:50:39;;;;;;;3.40;2.42;;;;;;;-145.68;66.31;72896.19;10452764;28;20207;-68